METAR Reports

Area Airport Weather Conditions

KBDL - Windsor Locks, Connecticut, USA
Distance from station: NE 45mi, 72km
Updated: 3:51AM EDT, August 13, 2020
Mostly cloudy
Mostly cloudy
 Wind from N
Wind: N 3 mph , 6 km/h
Temperature: 70°F , 21°C
Dew Point: 61°F , 16°C
Humidity: 73%
Barometer: 30.08 inHg , 1018.6 hPa
Clouds: Mostly cloudy
Visibility: 10 miles , 16 km
Cloud details: Few Clouds 5500 ft
Partly cloudy 6500 ft
Mostly cloudy 25000 ft
2020/08/13 07:51 KBDL 130751Z 01003KT 10SM FEW055 SCT065 BKN250 21/16 A3008 RMK AO2 LTG DSNT SE SLP184 OCNL LTGIC DSNT SE CB DSNT SE T02060161
KDXR - Danbury, Connecticut, USA
Distance from station: SSW 15mi, 24km
Updated: 3:53AM EDT, August 13, 2020
Mostly cloudy
Mostly cloudy
 Wind from calm
Wind: Calm
Temperature: 72°F , 22°C
Dew Point: 64°F , 18°C
Humidity: 78%
Barometer: 30.10 inHg , 1019.3 hPa
Clouds: Mostly cloudy
Visibility: 10 miles , 16 km
Cloud details: Mostly cloudy 4500 ft
2020/08/13 07:53 KDXR 130753Z AUTO 00000KT 10SM BKN045 22/18 A3010 RMK AO2 SLP188 T02170178
 
KOXC - Oxford/Waterbury, Connecticut, USA
Distance from station: ESE 16mi, 26km
Updated: 3:51AM EDT, August 13, 2020
Mostly cloudy
Mostly cloudy
 Wind from W
Wind: W 5 mph , 7 km/h
Temperature: 68°F , 20°C
Dew Point: 63°F , 17°C
Humidity: 83%
Barometer: 30.11 inHg , 1019.6 hPa
Clouds: Mostly cloudy
Visibility: 10 miles , 16 km
Cloud details: Mostly cloudy 4600 ft
2020/08/13 07:51 KOXC 130751Z AUTO 26004KT 10SM BKN046 20/17 A3011 RMK AO2 SLP201 T02000172 PNO $
KPOU - Poughkeepsie, New York, USA
Distance from station: W 25mi, 40km
Updated: 3:53AM EDT, August 13, 2020
Clear
Clear
 Wind from calm
Wind: Calm
Temperature: 66°F , 19°C
Dew Point: 64°F , 18°C
Humidity: 94%
Barometer: 30.08 inHg , 1018.6 hPa
Clouds: Clear
Visibility: 10 miles , 16 km
2020/08/13 07:53 KPOU 130753Z AUTO 00000KT 10SM CLR 19/18 A3008 RMK AO2 SLP182 T01940178
 
KMMK - Meriden, Connecticut, USA
Distance from station: E 30mi, 48km
Updated: 3:53AM EDT, August 13, 2020
Mostly cloudy
Mostly cloudy
 Wind from calm
Wind: Calm
Temperature: 70°F , 21°C
Dew Point: 66°F , 19°C
Humidity: 88%
Barometer: 30.08 inHg , 1018.6 hPa
Clouds: Mostly cloudy
Visibility: 10 miles , 16 km
Cloud details: Mostly cloudy 5000 ft
2020/08/13 07:53 KMMK 130753Z AUTO 00000KT 10SM BKN050 21/19 A3008 RMK AO2 SLP182 T02060194
KBDR - Bridgeport, Connecticut, USA
Distance from station: SSE 32mi, 51km
Updated: 3:52AM EDT, August 13, 2020
Few Clouds
Few Clouds
 Wind from N
Wind: N 7 mph , 11 km/h
Temperature: 77°F , 25°C
Dew Point: 66°F , 19°C
Humidity: 69%
Barometer: 30.06 inHg , 1017.9 hPa
Clouds: Few Clouds
Visibility: 10 miles , 16 km
Cloud details: Few Clouds 8000 ft
2020/08/13 07:52 KBDR 130752Z AUTO 36006KT 10SM FEW080 25/19 A3006 RMK AO2 SLP180 T02500194
 
KHVN - New Haven/Tweed, Connecticut, USA
Distance from station: SE 35mi, 57km
Updated: 3:53AM EDT, August 13, 2020
Few Clouds
Few Clouds
 Wind from N
Wind: N 5 mph , 7 km/h
Temperature: 73°F , 23°C
Dew Point: 66°F , 19°C
Humidity: 78%
Barometer: 30.07 inHg , 1018.3 hPa
Clouds: Few Clouds
Visibility: 10 miles , 16 km
Cloud details: Few Clouds 8500 ft
2020/08/13 07:53 KHVN 130753Z AUTO 35004KT 10SM FEW085 23/19 A3007 RMK AO2 SLP182 T02330189
KSWF - Newburgh/Stewart, New York, USA
Distance from station: W 35mi, 57km
Updated: 3:45AM EDT, August 13, 2020
Partly cloudy
Partly cloudy
 Wind from calm
Wind: Calm
Temperature: 70°F , 21°C
Dew Point: 61°F , 16°C
Humidity: 73%
Barometer: 30.10 inHg , 1019.3 hPa
Clouds: Partly cloudy
Visibility: 10 miles , 16 km
Cloud details: Partly cloudy 6000 ft
2020/08/13 07:45 KSWF 130745Z 00000KT 10SM SCT060 21/16 A3010
 
KHPN - White Plains, New York, USA
Distance from station: SSW 38mi, 62km
Updated: 3:56AM EDT, August 13, 2020
Mostly cloudy
Mostly cloudy
 Wind from N
Wind: N 6 mph , 9 km/h
Temperature: 73°F , 23°C
Dew Point: 64°F , 18°C
Humidity: 74%
Barometer: 30.07 inHg , 1018.3 hPa
Clouds: Mostly cloudy
Visibility: 10 miles , 16 km
Cloud details: Mostly cloudy 7000 ft
2020/08/13 07:56 KHPN 130756Z 36005KT 10SM BKN070 23/18 A3007 RMK AO2 SLP177 T02330183
KHFD - Hartford/Brainar, Connecticut, USA
Distance from station: ENE 41mi, 65km
Updated: 3:53AM EDT, August 13, 2020
Mostly cloudy
Mostly cloudy
 Wind from NNE
Wind: NNE 3 mph , 6 km/h
Temperature: 75°F , 24°C
Dew Point: 61°F , 16°C
Humidity: 61%
Barometer: 30.07 inHg , 1018.3 hPa
Clouds: Mostly cloudy
Visibility: 10 miles , 16 km
Cloud details: Mostly cloudy 6000 ft
Mostly cloudy 7500 ft
2020/08/13 07:53 KHFD 130753Z AUTO 02003KT 10SM BKN060 BKN075 24/16 A3007 RMK AO2 LTG DSNT E SLP184 T02390161